createdAt,value
2018-09-29T00:00:20.104Z,9.14
2018-09-29T00:01:35.037Z,9.05
2018-09-29T00:02:20.142Z,9.08
2018-09-29T00:03:20.619Z,9.01
2018-09-29T00:04:20.432Z,9.02
2018-09-29T00:05:20.452Z,9.05
2018-09-29T00:06:20.483Z,9.1
2018-09-29T00:09:20.264Z,9.01
2018-09-29T00:10:20.974Z,8.99
2018-09-29T00:11:20.413Z,8.98
2018-09-29T00:12:20.589Z,8.92
2018-09-29T00:13:20.341Z,9.02
2018-09-29T00:14:20.359Z,9.01
2018-09-29T00:15:20.635Z,9.1
2018-09-29T00:16:20.712Z,9.1
2018-09-29T00:17:20.675Z,9.13
2018-09-29T00:18:20.695Z,9.05
2018-09-29T00:19:20.449Z,9.01
2018-09-29T00:20:20.725Z,9.01
2018-09-29T00:21:20.751Z,9.13
2018-09-29T00:22:20.760Z,9.04
2018-09-29T00:23:20.520Z,9.08
2018-09-29T00:24:35.462Z,8.95
2018-09-29T00:26:20.895Z,8.91
2018-09-29T00:27:20.336Z,8.98
2018-09-29T00:28:20.622Z,9.05
2018-09-29T00:29:20.887Z,9.08
2018-09-29T00:30:20.911Z,8.92
2018-09-29T00:31:20.931Z,8.96
2018-09-29T00:32:20.684Z,9.01
2018-09-29T00:33:20.703Z,8.94
2018-09-29T00:34:35.640Z,8.98
2018-09-29T00:35:20.739Z,8.96
2018-09-29T00:36:21.015Z,8.91
2018-09-29T00:37:20.775Z,8.95
2018-09-29T00:38:21.054Z,8.96
2018-09-29T00:39:21.068Z,8.84
2018-09-29T00:40:35.746Z,8.86
2018-09-29T00:41:21.108Z,8.86
2018-09-29T00:42:21.121Z,8.79
2018-09-29T00:43:21.145Z,8.77
2018-09-29T00:44:21.164Z,8.81
2018-09-29T00:45:21.189Z,8.73
2018-09-29T00:46:21.198Z,8.77
2018-09-29T00:47:21.213Z,8.87
2018-09-29T00:48:21.234Z,8.71
2018-09-29T00:49:21.255Z,8.7
2018-09-29T00:50:21.268Z,8.73
2018-09-29T00:51:21.287Z,8.62
2018-09-29T00:52:21.317Z,8.7
2018-09-29T00:53:21.321Z,8.71
2018-09-29T00:54:21.086Z,8.63
2018-09-29T00:56:36.035Z,8.71
2018-09-29T00:57:21.395Z,8.76
2018-09-29T00:59:21.178Z,8.62
2018-09-29T01:00:21.448Z,8.68
2018-09-29T01:01:21.469Z,8.55
2018-09-29T01:02:21.230Z,8.48
2018-09-29T01:03:21.510Z,8.56
2018-09-29T01:04:21.519Z,8.5
2018-09-29T01:05:36.199Z,8.58
2018-09-29T01:06:36.217Z,8.52
2018-09-29T01:07:21.572Z,8.47
2018-09-29T01:08:21.596Z,8.4
2018-09-29T01:09:21.612Z,8.41
2018-09-29T01:10:21.629Z,8.52
2018-09-29T01:11:21.391Z,8.45
2018-09-29T01:12:36.332Z,8.4
2018-09-29T01:13:36.351Z,8.44
2018-09-29T01:14:21.704Z,8.47
2018-09-29T01:15:21.716Z,8.47
2018-09-29T01:16:21.734Z,8.55
2018-09-29T01:17:21.504Z,8.38
2018-09-29T01:18:21.775Z,8.41
2018-09-29T01:19:21.534Z,8.47
2018-09-29T01:20:21.806Z,8.41
2018-09-29T01:21:21.829Z,8.44
2018-09-29T01:22:36.504Z,8.45
2018-09-29T01:23:21.863Z,8.41
2018-09-29T01:24:21.621Z,8.41
2018-09-29T01:25:21.743Z,8.43
2018-09-29T01:26:21.919Z,8.38
2018-09-29T01:27:36.343Z,8.41
2018-09-29T01:29:21.969Z,8.45
2018-09-29T01:30:21.990Z,8.36
2018-09-29T01:31:22.011Z,8.37
2018-09-29T01:32:22.029Z,8.29
2018-09-29T01:33:22.056Z,8.3
2018-09-29T01:34:21.802Z,8.23
2018-09-29T01:35:22.084Z,8.23
2018-09-29T01:36:22.100Z,8.19
2018-09-29T01:37:22.115Z,8.19
2018-09-29T01:38:22.130Z,8.2
2018-09-29T01:39:22.167Z,8.29
2018-09-29T01:40:21.905Z,8.26
2018-09-29T01:41:22.184Z,8.25
2018-09-29T01:42:22.208Z,8.19
2018-09-29T01:43:22.229Z,8.15
2018-09-29T01:44:21.981Z,8.2
2018-09-29T01:45:22.257Z,8.08
2018-09-29T01:46:22.275Z,8.11
2018-09-29T01:47:22.300Z,8.04
2018-09-29T01:48:22.308Z,8.07
2018-09-29T01:49:22.067Z,8.07
2018-09-29T01:50:22.345Z,8.07
2018-09-29T01:51:22.365Z,8.02
2018-09-29T01:52:22.128Z,8.04
2018-09-29T01:53:22.399Z,8.02
2018-09-29T01:54:36.818Z,8.04
2018-09-29T01:55:22.436Z,7.95
2018-09-29T01:57:22.214Z,8.01
2018-09-29T01:58:22.228Z,8.04
2018-09-29T01:59:37.164Z,8.02
2018-09-29T02:00:22.264Z,7.97
2018-09-29T02:02:22.570Z,8
2018-09-29T02:03:22.629Z,8
2018-09-29T02:04:22.598Z,8.01
2018-09-29T02:05:22.611Z,8.01
2018-09-29T02:06:22.692Z,8.02
2018-09-29T02:07:22.650Z,8.08
2018-09-29T02:08:22.661Z,8.1
2018-09-29T02:09:22.685Z,8.07
2018-09-29T02:10:22.446Z,8
2018-09-29T02:11:22.716Z,8.04
2018-09-29T02:12:22.741Z,8.04
2018-09-29T02:13:22.750Z,8.02
2018-09-29T02:14:22.773Z,8.07
2018-09-29T02:16:22.955Z,7.9
2018-09-29T02:17:22.571Z,8
2018-09-29T02:18:22.843Z,8.07
2018-09-29T02:19:22.858Z,8.02
2018-09-29T02:20:22.875Z,8.08
2018-09-29T02:21:22.995Z,7.98
2018-09-29T02:22:22.912Z,7.9
2018-09-29T02:23:37.588Z,8.04
2018-09-29T02:24:22.944Z,8.01
2018-09-29T02:25:22.977Z,7.86
2018-09-29T02:26:22.725Z,7.86
2018-09-29T02:27:22.740Z,7.92
2018-09-29T02:28:22.761Z,7.89
2018-09-29T02:29:23.034Z,7.87
2018-09-29T02:30:23.052Z,7.86
2018-09-29T02:31:37.731Z,7.85
2018-09-29T02:32:23.088Z,7.89
2018-09-29T02:33:23.106Z,7.86
2018-09-29T02:34:23.131Z,7.63
2018-09-29T02:35:23.141Z,7.68
2018-09-29T02:36:23.164Z,7.68
2018-09-29T02:37:23.175Z,7.77
2018-09-29T02:38:23.200Z,7.8
2018-09-29T02:39:37.869Z,7.63
2018-09-29T02:40:37.895Z,7.67
2018-09-29T02:41:22.989Z,7.75
2018-09-29T02:42:23.268Z,7.67
2018-09-29T02:43:23.300Z,7.64
2018-09-29T02:44:23.305Z,7.63
2018-09-29T02:45:23.317Z,7.57
2018-09-29T02:46:23.339Z,7.63
2018-09-29T02:47:38.020Z,7.63
2018-09-29T02:48:38.131Z,7.63
2018-09-29T02:49:23.386Z,7.57
2018-09-29T02:50:23.410Z,7.64
2018-09-29T02:51:23.430Z,7.71
2018-09-29T02:52:23.467Z,7.61
2018-09-29T02:53:23.456Z,7.68
2018-09-29T02:54:23.214Z,7.63
2018-09-29T02:55:23.240Z,7.58
2018-09-29T02:56:23.524Z,7.64
2018-09-29T02:57:23.524Z,7.69
2018-09-29T02:58:23.547Z,7.64
2018-09-29T02:59:23.305Z,7.53
2018-09-29T03:00:23.322Z,7.61
2018-09-29T03:01:23.595Z,7.52
2018-09-29T03:02:38.275Z,7.63
2018-09-29T03:04:23.654Z,7.68
2018-09-29T03:05:23.667Z,7.58
2018-09-29T03:06:38.349Z,7.68
2018-09-29T03:07:23.900Z,7.58
2018-09-29T03:08:23.718Z,7.57
2018-09-29T03:09:23.737Z,7.52
2018-09-29T03:10:23.756Z,7.53
2018-09-29T03:11:23.771Z,7.57
2018-09-29T03:12:23.788Z,7.5
2018-09-29T03:13:23.808Z,7.46
2018-09-29T03:14:23.835Z,7.5
2018-09-29T03:15:23.838Z,7.52
2018-09-29T03:16:23.863Z,7.52
2018-09-29T03:17:23.873Z,7.5
2018-09-29T03:18:23.892Z,7.67
2018-09-29T03:19:24.342Z,7.49
2018-09-29T03:20:23.935Z,7.53
2018-09-29T03:21:23.707Z,7.48
2018-09-29T03:22:23.960Z,7.49
2018-09-29T03:23:23.985Z,7.46
2018-09-29T03:24:23.995Z,7.49
2018-09-29T03:25:24.028Z,7.48
2018-09-29T03:26:24.029Z,7.5
2018-09-29T03:27:24.051Z,7.42
2018-09-29T03:28:24.075Z,7.39
2018-09-29T03:29:24.094Z,7.4
2018-09-29T03:30:23.851Z,7.39
2018-09-29T03:31:24.470Z,7.43
2018-09-29T03:32:24.144Z,7.4
2018-09-29T03:33:23.899Z,7.39
2018-09-29T03:34:38.828Z,7.35
2018-09-29T03:35:24.185Z,7.34
2018-09-29T03:36:24.201Z,7.37
2018-09-29T03:37:24.233Z,7.34
2018-09-29T03:38:38.903Z,7.35
2018-09-29T03:39:24.257Z,7.35
2018-09-29T03:40:24.273Z,7.35
2018-09-29T03:41:24.032Z,7.32
2018-09-29T03:42:24.316Z,7.31
2018-09-29T03:43:24.329Z,7.35
2018-09-29T03:44:24.344Z,7.32
2018-09-29T03:45:24.117Z,7.34
2018-09-29T03:46:24.119Z,7.35
2018-09-29T03:47:24.399Z,7.32
2018-09-29T03:48:24.156Z,7.4
2018-09-29T03:49:24.430Z,7.35
2018-09-29T03:50:39.107Z,7.24
2018-09-29T03:51:24.209Z,7.24
2018-09-29T03:52:24.483Z,7.16
2018-09-29T03:53:24.549Z,7.16
2018-09-29T03:54:24.258Z,7.13
2018-09-29T03:55:24.540Z,7.16
2018-09-29T03:56:24.298Z,7.13
2018-09-29T03:57:24.331Z,7.09
2018-09-29T03:58:24.588Z,7.23
2018-09-29T03:59:24.606Z,7.09
2018-09-29T04:00:24.623Z,7.1
2018-09-29T04:01:24.641Z,7.13
2018-09-29T04:02:24.652Z,7.09
2018-09-29T04:03:24.418Z,7.17
2018-09-29T04:04:24.711Z,7.16
2018-09-29T04:06:39.378Z,7.05
2018-09-29T04:07:24.748Z,7.16
2018-09-29T04:09:24.786Z,6.98
2018-09-29T04:10:39.455Z,7.03
2018-09-29T04:11:24.549Z,7.09
2018-09-29T04:12:24.565Z,7.07
2018-09-29T04:13:24.842Z,7.05
2018-09-29T04:14:24.861Z,7.16
2018-09-29T04:15:24.877Z,7.02
2018-09-29T04:16:24.923Z,7.03
2018-09-29T04:17:24.919Z,6.98
2018-09-29T04:18:24.927Z,6.91
2018-09-29T04:19:25.047Z,6.95
2018-09-29T04:20:24.966Z,6.97
2018-09-29T04:21:24.988Z,7.02
2018-09-29T04:22:39.658Z,6.92
2018-09-29T04:23:25.029Z,6.92
2018-09-29T04:24:25.028Z,6.97
2018-09-29T04:25:25.045Z,6.94
2018-09-29T04:26:25.065Z,6.92
2018-09-29T04:27:25.079Z,6.8
2018-09-29T04:28:25.095Z,6.84
2018-09-29T04:29:25.143Z,6.74
2018-09-29T04:30:25.138Z,6.77
2018-09-29T04:31:25.156Z,6.79
2018-09-29T04:32:25.176Z,6.74
2018-09-29T04:33:25.184Z,6.92
2018-09-29T04:34:25.213Z,6.87
2018-09-29T04:35:25.223Z,6.95
2018-09-29T04:36:25.234Z,6.97
2018-09-29T04:37:39.656Z,6.81
2018-09-29T04:38:25.275Z,6.88
2018-09-29T04:39:25.329Z,6.87
2018-09-29T04:40:25.305Z,6.77
2018-09-29T04:41:25.322Z,6.91
2018-09-29T04:42:25.081Z,6.88
2018-09-29T04:43:25.581Z,6.95
2018-09-29T04:44:25.120Z,6.84
2018-09-29T04:45:25.388Z,6.92
2018-09-29T04:46:25.410Z,6.81
2018-09-29T04:47:25.422Z,6.84
2018-09-29T04:48:25.229Z,6.81
2018-09-29T04:49:25.465Z,6.79
2018-09-29T04:50:25.477Z,6.97
2018-09-29T04:51:25.498Z,6.8
2018-09-29T04:52:25.250Z,6.85
2018-09-29T04:53:25.528Z,6.95
2018-09-29T04:54:25.541Z,6.91
2018-09-29T04:55:25.566Z,6.92
2018-09-29T04:56:25.575Z,6.8
2018-09-29T04:57:25.596Z,6.79
2018-09-29T04:58:25.356Z,6.74
2018-09-29T04:59:25.419Z,6.74
2018-09-29T05:00:25.645Z,6.79
2018-09-29T05:01:25.661Z,6.73
2018-09-29T05:02:25.419Z,6.67
2018-09-29T05:03:25.696Z,6.74
2018-09-29T05:04:25.479Z,6.7
2018-09-29T05:05:25.730Z,6.77
2018-09-29T05:06:25.854Z,6.62
2018-09-29T05:07:25.765Z,6.69
2018-09-29T05:08:25.782Z,6.62
2018-09-29T05:09:40.559Z,6.69
2018-09-29T05:10:25.819Z,6.73
2018-09-29T05:11:25.833Z,6.76
2018-09-29T05:13:25.616Z,6.76
2018-09-29T05:14:25.367Z,6.71
2018-09-29T05:15:25.903Z,6.77
2018-09-29T05:16:40.579Z,6.81
2018-09-29T05:17:25.940Z,6.8
2018-09-29T05:18:40.661Z,6.79
2018-09-29T05:19:40.628Z,6.77
2018-09-29T05:20:25.731Z,6.76
2018-09-29T05:21:26.004Z,6.85
2018-09-29T05:22:26.020Z,6.76
2018-09-29T05:24:25.795Z,6.76
2018-09-29T05:25:40.738Z,6.8
2018-09-29T05:26:26.106Z,6.85
2018-09-29T05:28:26.126Z,6.88
2018-09-29T05:29:25.882Z,6.92
2018-09-29T05:30:26.167Z,6.98
2018-09-29T05:31:25.917Z,6.87
2018-09-29T05:32:26.192Z,6.95
2018-09-29T05:33:40.868Z,6.91
2018-09-29T05:34:25.970Z,6.97
2018-09-29T05:35:26.243Z,6.99
2018-09-29T05:36:26.261Z,6.92
2018-09-29T05:37:26.276Z,6.99
2018-09-29T05:38:26.429Z,7.03
2018-09-29T05:39:26.064Z,7.1
2018-09-29T05:40:26.332Z,7.06
2018-09-29T05:41:41.004Z,7.17
2018-09-29T05:42:26.363Z,7.3
2018-09-29T05:43:26.384Z,7.23
2018-09-29T05:44:26.143Z,7.27
2018-09-29T05:45:26.414Z,7.24
2018-09-29T05:46:26.177Z,7.28
2018-09-29T05:47:26.456Z,7.24
2018-09-29T05:48:26.659Z,7.31
2018-09-29T05:49:26.493Z,7.35
2018-09-29T05:50:26.501Z,7.39
2018-09-29T05:51:40.922Z,7.45
2018-09-29T05:52:26.534Z,7.46
2018-09-29T05:53:26.554Z,7.57
2018-09-29T05:54:26.574Z,7.69
2018-09-29T05:55:26.645Z,7.77
2018-09-29T05:56:26.611Z,8
2018-09-29T05:57:41.030Z,8.26
2018-09-29T05:58:26.649Z,8.43
2018-09-29T05:59:26.410Z,8.41
2018-09-29T06:00:26.487Z,8.63
2018-09-29T06:01:26.706Z,8.81
2018-09-29T06:02:26.730Z,8.95
2018-09-29T06:03:26.746Z,9.1
2018-09-29T06:04:26.517Z,9.21
2018-09-29T06:05:27.123Z,9.4
2018-09-29T06:06:26.821Z,9.47
2018-09-29T06:07:27.234Z,9.48
2018-09-29T06:08:26.621Z,9.61
2018-09-29T06:09:41.572Z,9.71
2018-09-29T06:10:26.908Z,9.79
2018-09-29T06:11:26.936Z,10.05
2018-09-29T06:12:41.614Z,10.15
2018-09-29T06:13:26.995Z,10.27
2018-09-29T06:14:41.669Z,10.4
2018-09-29T06:17:27.077Z,10.71
2018-09-29T06:18:27.107Z,10.81
2018-09-29T06:19:27.123Z,10.73
2018-09-29T06:20:27.153Z,10.73
2018-09-29T06:21:41.832Z,10.94
2018-09-29T06:22:27.199Z,10.96
2018-09-29T06:23:27.241Z,11.09
2018-09-29T06:24:26.990Z,11.15
2018-09-29T06:25:27.018Z,11.28
2018-09-29T06:26:27.039Z,11.37
2018-09-29T06:27:27.324Z,11.4
2018-09-29T06:28:27.361Z,11.49
2018-09-29T06:29:27.379Z,11.64
2018-09-29T06:30:27.414Z,11.73
2018-09-29T06:32:27.455Z,11.96
2018-09-29T06:33:27.225Z,12.01
2018-09-29T06:34:42.300Z,12.16
2018-09-29T06:35:42.199Z,12.24
2018-09-29T06:36:27.558Z,12.12
2018-09-29T06:37:42.251Z,12.04
2018-09-29T06:38:27.616Z,11.9
2018-09-29T06:39:27.650Z,11.78
2018-09-29T06:40:27.669Z,11.78
2018-09-29T06:41:27.720Z,12.14
2018-09-29T06:42:27.724Z,12.34
2018-09-29T06:43:27.757Z,12.45
2018-09-29T06:44:42.440Z,12.5
2018-09-29T06:45:27.807Z,12.68
2018-09-29T06:46:27.576Z,12.57
2018-09-29T06:47:27.606Z,12.52
2018-09-29T06:48:27.891Z,12.67
2018-09-29T06:49:27.917Z,12.85
2018-09-29T06:50:27.942Z,12.85
2018-09-29T06:51:27.971Z,12.62
2018-09-29T06:52:27.994Z,12.54
2018-09-29T06:53:27.775Z,12.57
2018-09-29T06:54:28.155Z,12.75
2018-09-29T06:55:28.086Z,12.95
2018-09-29T06:56:28.118Z,13.26
2018-09-29T06:57:28.145Z,13.44
2018-09-29T06:58:28.168Z,13.48
2018-09-29T06:59:28.207Z,13.48
2018-09-29T07:00:42.886Z,13.67
2018-09-29T07:02:28.283Z,13.78
2018-09-29T07:03:28.314Z,13.77
2018-09-29T07:04:28.337Z,13.87
2018-09-29T07:06:28.396Z,13.87
2018-09-29T07:07:28.534Z,13.63
2018-09-29T07:08:43.120Z,13.49
2018-09-29T07:09:28.221Z,13.62
2018-09-29T07:11:28.537Z,13.59
2018-09-29T07:12:28.306Z,13.81
2018-09-29T07:13:28.334Z,13.78
2018-09-29T07:15:28.657Z,13.64
2018-09-29T07:16:43.342Z,13.69
2018-09-29T07:18:28.747Z,13.59
2018-09-29T07:19:28.506Z,13.73
2018-09-29T07:20:28.791Z,13.96
2018-09-29T07:21:28.590Z,14.32
2018-09-29T07:22:28.850Z,14.52
2018-09-29T07:24:28.654Z,14.73
2018-09-29T07:25:29.259Z,14.78
2018-09-29T07:26:28.968Z,14.8
2018-09-29T07:27:28.988Z,14.98
2018-09-29T07:29:29.048Z,15.23
2018-09-29T07:30:28.828Z,15.27
2018-09-29T07:31:29.284Z,15.28
2018-09-29T07:32:43.791Z,15.27
2018-09-29T07:34:29.188Z,15.29
2018-09-29T07:37:29.010Z,15.69
2018-09-29T07:38:29.300Z,15.8
2018-09-29T07:39:29.325Z,15.89
2018-09-29T07:40:29.358Z,15.87
2018-09-29T07:41:29.125Z,15.84
2018-09-29T07:42:29.425Z,15.84
2018-09-29T07:43:44.094Z,15.87
2018-09-29T07:44:29.205Z,16.07
2018-09-29T07:45:29.495Z,16.02
2018-09-29T07:46:29.525Z,15.83
2018-09-29T07:47:44.208Z,15.9
2018-09-29T07:48:29.579Z,15.97
2018-09-29T07:50:29.628Z,15.92
2018-09-29T07:51:29.703Z,15.9
2018-09-29T07:52:29.424Z,16.09
2018-09-29T07:53:29.711Z,16.27
2018-09-29T07:54:29.478Z,16.39
2018-09-29T07:55:44.437Z,16.43
2018-09-29T07:56:29.536Z,16.38
2018-09-29T07:58:29.692Z,16.34
2018-09-29T07:59:29.615Z,16.43
2018-09-29T08:00:29.901Z,16.5
2018-09-29T08:01:29.930Z,16.41
2018-09-29T08:02:29.481Z,16.56
2018-09-29T08:04:30.010Z,16.56
2018-09-29T08:05:29.778Z,16.66
2018-09-29T08:06:30.323Z,16.86
2018-09-29T08:07:29.572Z,16.78
2018-09-29T08:08:30.116Z,16.82
2018-09-29T08:09:30.146Z,16.78
2018-09-29T08:10:30.173Z,16.67
2018-09-29T08:11:30.198Z,16.83
2018-09-29T08:13:30.254Z,16.98
2018-09-29T08:14:30.279Z,17.07
2018-09-29T08:15:30.055Z,17.03
2018-09-29T08:16:30.332Z,17.12
2018-09-29T08:17:30.359Z,17.14
2018-09-29T08:18:30.387Z,17.07
2018-09-29T08:19:45.075Z,17.08
2018-09-29T08:20:30.448Z,17.08
2018-09-29T08:21:30.467Z,16.81
2018-09-29T08:22:30.237Z,17
2018-09-29T08:23:30.520Z,16.94
2018-09-29T08:24:45.292Z,16.7
2018-09-29T08:25:30.572Z,16.73
2018-09-29T08:26:30.608Z,16.78
2018-09-29T08:27:30.676Z,16.66
2018-09-29T08:28:30.658Z,16.86
2018-09-29T08:29:30.428Z,16.93
2018-09-29T08:30:30.805Z,16.91
2018-09-29T08:31:30.738Z,17.06
2018-09-29T08:32:30.621Z,17.16
2018-09-29T08:33:30.793Z,17.26
2018-09-29T08:34:30.551Z,17.18
2018-09-29T08:35:45.651Z,17.36
2018-09-29T08:36:30.862Z,17.22
2018-09-29T08:37:30.635Z,17.19
2018-09-29T08:38:31.023Z,17.18
2018-09-29T08:39:30.428Z,17.07
2018-09-29T08:40:45.636Z,17.14
2018-09-29T08:41:30.996Z,17.21
2018-09-29T08:42:30.763Z,17.37
2018-09-29T08:43:31.051Z,17.41
2018-09-29T08:44:30.814Z,17
2018-09-29T08:45:45.506Z,16.52
2018-09-29T08:46:31.130Z,16.42
2018-09-29T08:47:31.154Z,16.24
2018-09-29T08:48:31.184Z,16.33
2018-09-29T08:49:31.202Z,16.52
2018-09-29T08:50:30.976Z,16.6
2018-09-29T08:51:45.919Z,16.15
2018-09-29T08:52:31.282Z,16.25
2018-09-29T08:53:31.435Z,16.52
2018-09-29T08:54:31.080Z,16.64
2018-09-29T08:55:31.363Z,16.61
2018-09-29T08:57:31.519Z,16.67
2018-09-29T08:58:31.439Z,16.85
2018-09-29T08:59:31.471Z,16.98
2018-09-29T09:00:31.494Z,17.11
2018-09-29T09:01:31.517Z,16.94
2018-09-29T09:02:31.390Z,17.19
2018-09-29T09:03:31.576Z,16.98
2018-09-29T09:05:31.621Z,17.04
2018-09-29T09:06:31.646Z,16.94
2018-09-29T09:07:46.333Z,16.94
2018-09-29T09:08:31.440Z,16.94
2018-09-29T09:09:32.015Z,16.7
2018-09-29T09:10:31.493Z,16.15
2018-09-29T09:11:31.779Z,15.83
2018-09-29T09:12:46.467Z,16.07
2018-09-29T09:13:31.831Z,16.14
2018-09-29T09:14:31.855Z,16.39
2018-09-29T09:15:31.875Z,16.28
2018-09-29T09:16:32.006Z,16.39
2018-09-29T09:17:31.673Z,16.3
2018-09-29T09:18:31.699Z,16.17
2018-09-29T09:19:31.723Z,16.45
2018-09-29T09:20:32.007Z,16.63
2018-09-29T09:21:32.032Z,16.91
2018-09-29T09:22:46.487Z,17.07
2018-09-29T09:23:32.235Z,17.22
2018-09-29T09:24:32.111Z,17.14
2018-09-29T09:25:32.139Z,17.21
2018-09-29T09:26:32.159Z,17.22
2018-09-29T09:27:32.185Z,17.28
2018-09-29T09:28:32.210Z,17.4
2018-09-29T09:29:32.237Z,17.43
2018-09-29T09:30:32.265Z,17.55
2018-09-29T09:31:32.289Z,17.34
2018-09-29T09:32:32.313Z,17.52
2018-09-29T09:33:32.337Z,17.52
2018-09-29T09:34:31.847Z,17.54
2018-09-29T09:35:32.396Z,17.21
2018-09-29T09:36:32.416Z,17.25
2018-09-29T09:39:32.488Z,17.43
2018-09-29T09:40:32.518Z,17.3
2018-09-29T09:41:32.544Z,17.26
2018-09-29T09:42:32.568Z,17.21
2018-09-29T09:43:32.858Z,17.26
2018-09-29T09:44:32.715Z,17.26
2018-09-29T09:45:32.135Z,17.43
2018-09-29T09:46:32.444Z,17.18
2018-09-29T09:47:32.435Z,16.93
2018-09-29T09:48:32.720Z,16.68
2018-09-29T09:49:32.998Z,16.78
2018-09-29T09:50:32.769Z,16.56
2018-09-29T09:51:32.796Z,16.3
2018-09-29T09:52:32.824Z,16.25
2018-09-29T09:53:32.841Z,16.48
2018-09-29T09:54:47.532Z,16.49
2018-09-29T09:55:32.899Z,16.33
2018-09-29T09:56:32.925Z,16.33
2018-09-29T09:57:32.943Z,16.41
2018-09-29T09:58:32.974Z,16.28
2018-09-29T09:59:33.009Z,16.27
2018-09-29T10:00:32.608Z,16.09
2018-09-29T10:01:33.043Z,15.93
2018-09-29T10:02:33.071Z,15.9
2018-09-29T10:03:33.096Z,15.74
2018-09-29T10:04:47.783Z,15.67
2018-09-29T10:05:33.146Z,15.8
2018-09-29T10:06:33.692Z,15.96
2018-09-29T10:07:33.196Z,16.23
2018-09-29T10:08:33.217Z,16.28
2018-09-29T10:09:33.243Z,16.14
2018-09-29T10:10:47.672Z,16.11
2018-09-29T10:11:33.300Z,16.07
2018-09-29T10:12:33.319Z,15.84
2018-09-29T10:14:48.035Z,15.97
2018-09-29T10:15:33.390Z,15.92
2018-09-29T10:16:33.422Z,16.02
2018-09-29T10:18:33.473Z,15.94
2018-09-29T10:19:33.231Z,15.71
2018-09-29T10:20:33.256Z,15.69
2018-09-29T10:21:33.280Z,15.83
2018-09-29T10:22:33.306Z,16.11
2018-09-29T10:24:33.353Z,16.09
2018-09-29T10:25:33.635Z,16.01
2018-09-29T10:27:33.743Z,15.94
2018-09-29T10:28:33.713Z,15.74
2018-09-29T10:29:33.736Z,15.68
2018-09-29T10:30:33.758Z,15.51
2018-09-29T10:31:33.779Z,15.57
2018-09-29T10:32:33.802Z,15.56
2018-09-29T10:33:33.827Z,15.72
2018-09-29T10:34:33.856Z,15.5
2018-09-29T10:35:48.535Z,15.28
2018-09-29T10:36:34.104Z,15.2
2018-09-29T10:37:48.326Z,15.19
2018-09-29T10:38:33.946Z,15.1
2018-09-29T10:39:33.968Z,15.13
2018-09-29T10:40:33.996Z,15.01
2018-09-29T10:41:34.021Z,14.83
2018-09-29T10:42:48.701Z,14.73
2018-09-29T10:43:34.063Z,14.81
2018-09-29T10:44:33.830Z,14.89
2018-09-29T10:46:34.146Z,14.91
2018-09-29T10:47:34.159Z,15.07
2018-09-29T10:48:34.179Z,15.1
2018-09-29T10:49:33.690Z,14.94
2018-09-29T10:50:33.967Z,15.13
2018-09-29T10:51:34.254Z,14.94
2018-09-29T10:52:34.275Z,15.02
2018-09-29T10:53:34.293Z,14.95
2018-09-29T10:54:34.321Z,15.07
2018-09-29T10:55:34.341Z,15.16
2018-09-29T10:56:34.368Z,15.32
2018-09-29T10:57:49.050Z,15.46
2018-09-29T10:58:34.412Z,15.47
2018-09-29T10:59:34.432Z,15.56
2018-09-29T11:00:34.459Z,15.5
2018-09-29T11:01:34.480Z,15.51
2018-09-29T11:02:34.624Z,15.75
2018-09-29T11:03:34.527Z,15.6
2018-09-29T11:04:34.547Z,15.6
2018-09-29T11:05:34.574Z,15.76
2018-09-29T11:06:34.599Z,15.84
2018-09-29T11:07:49.278Z,16.04
2018-09-29T11:08:34.390Z,16.17
2018-09-29T11:09:34.665Z,15.86
2018-09-29T11:10:34.697Z,15.83
2018-09-29T11:11:34.709Z,16.02
2018-09-29T11:14:35.022Z,16.09
2018-09-29T11:16:34.578Z,16.3
2018-09-29T11:17:34.859Z,16.33
2018-09-29T11:18:34.935Z,16.43
2018-09-29T11:19:34.894Z,16.67
2018-09-29T11:20:34.663Z,16.57
2018-09-29T11:21:34.942Z,16.64
2018-09-29T11:22:34.970Z,16.68
2018-09-29T11:23:34.993Z,16.6
2018-09-29T11:24:35.012Z,16.66
2018-09-29T11:25:35.031Z,16.38
2018-09-29T11:26:35.057Z,16.5
2018-09-29T11:27:35.128Z,16.39
2018-09-29T11:28:35.100Z,16.41
2018-09-29T11:30:34.890Z,16.43
2018-09-29T11:31:35.186Z,16.46
2018-09-29T11:32:35.195Z,16.45
2018-09-29T11:33:34.958Z,16.5
2018-09-29T11:34:34.983Z,16.46
2018-09-29T11:35:35.264Z,16.42
2018-09-29T11:36:35.292Z,16.76
2018-09-29T11:37:35.307Z,16.49
2018-09-29T11:38:35.335Z,16.52
2018-09-29T11:39:35.430Z,16.7
2018-09-29T11:40:35.368Z,16.61
2018-09-29T11:41:35.406Z,16.56
2018-09-29T11:42:35.423Z,16.43
2018-09-29T11:43:35.452Z,16.45
2018-09-29T11:44:35.526Z,16.63
2018-09-29T11:45:50.166Z,16.94
2018-09-29T11:46:35.517Z,17.12
2018-09-29T11:48:35.303Z,17.15
2018-09-29T11:49:35.590Z,17.03
2018-09-29T11:50:35.613Z,17.11
2018-09-29T11:51:50.345Z,17.18
2018-09-29T11:52:35.651Z,16.88
2018-09-29T11:53:35.675Z,16.75
2018-09-29T11:54:35.703Z,16.56
2018-09-29T11:55:35.726Z,16.64
2018-09-29T11:56:35.748Z,16.79
2018-09-29T11:57:35.874Z,17.03
2018-09-29T11:58:35.795Z,17.14
2018-09-29T11:59:35.813Z,17.16
2018-09-29T12:00:35.838Z,17.14
2018-09-29T12:01:50.703Z,17.04
2018-09-29T12:05:35.955Z,16.94
2018-09-29T12:06:35.977Z,16.94
2018-09-29T12:07:36.149Z,17.03
2018-09-29T12:08:36.033Z,17.06
2018-09-29T12:09:36.049Z,17.22
2018-09-29T12:10:36.069Z,17.43
2018-09-29T12:11:36.198Z,17.3
2018-09-29T12:12:36.114Z,17.28
2018-09-29T12:13:36.143Z,17.26
2018-09-29T12:14:36.196Z,17.23
2018-09-29T12:15:35.930Z,17.49
2018-09-29T12:16:35.949Z,17.49
2018-09-29T12:17:50.900Z,17.54
2018-09-29T12:18:35.999Z,17.72
2018-09-29T12:19:36.023Z,17.92
2018-09-29T12:20:35.784Z,18.12
2018-09-29T12:21:36.331Z,18.27
2018-09-29T12:22:36.354Z,18.41
2018-09-29T12:23:36.114Z,18.6
2018-09-29T12:24:51.056Z,18.57
2018-09-29T12:25:36.428Z,18.44
2018-09-29T12:26:51.102Z,18.45
2018-09-29T12:27:51.124Z,18.35
2018-09-29T12:28:36.487Z,18.3
2018-09-29T12:29:51.268Z,18.37
2018-09-29T12:30:36.535Z,18.41
2018-09-29T12:31:36.562Z,18.52
2018-09-29T12:32:51.241Z,18.17
2018-09-29T12:33:36.609Z,17.82
2018-09-29T12:34:36.625Z,17.86
2018-09-29T12:35:36.647Z,17.93
2018-09-29T12:36:36.416Z,17.95
2018-09-29T12:37:37.146Z,17.93
2018-09-29T12:38:36.721Z,18.05
2018-09-29T12:39:36.755Z,18.08
2018-09-29T12:40:51.428Z,17.71
2018-09-29T12:41:36.791Z,17.72
2018-09-29T12:42:36.893Z,17.77
2018-09-29T12:43:36.843Z,17.7
2018-09-29T12:44:37.090Z,17.89
2018-09-29T12:45:36.637Z,18.14
2018-09-29T12:46:36.648Z,18.33
2018-09-29T12:47:37.048Z,18.44
2018-09-29T12:48:36.953Z,18.33
2018-09-29T12:49:36.720Z,18.02
2018-09-29T12:50:37.105Z,18.14
2018-09-29T12:51:37.022Z,18.15
2018-09-29T12:52:37.054Z,18.29
2018-09-29T12:53:37.072Z,18.41
2018-09-29T12:54:37.095Z,18.62
2018-09-29T12:55:37.162Z,18.73
2018-09-29T12:56:36.626Z,18.8
2018-09-29T12:57:37.168Z,18.72
2018-09-29T12:58:36.933Z,18.67
2018-09-29T12:59:37.215Z,18.78
2018-09-29T13:00:37.237Z,18.85
2018-09-29T13:01:37.002Z,18.76
2018-09-29T13:02:37.289Z,18.42
2018-09-29T13:03:37.327Z,18.26
2018-09-29T13:04:51.988Z,18.1
2018-09-29T13:05:37.095Z,18.2
2018-09-29T13:06:37.129Z,18.03
2018-09-29T13:07:37.398Z,18.3
2018-09-29T13:08:37.433Z,18.33
2018-09-29T13:09:37.449Z,18.52
2018-09-29T13:10:37.475Z,18.55
2018-09-29T13:11:37.502Z,18.54
2018-09-29T13:12:37.519Z,18.58
2018-09-29T13:13:37.589Z,18.7
2018-09-29T13:14:37.566Z,18.7
2018-09-29T13:15:37.590Z,18.81
2018-09-29T13:16:37.356Z,18.85
2018-09-29T13:17:37.636Z,18.82
2018-09-29T13:18:37.656Z,18.76
2018-09-29T13:19:37.683Z,18.73
2018-09-29T13:20:52.369Z,18.75
2018-09-29T13:21:37.732Z,18.7
2018-09-29T13:22:37.753Z,18.6
2018-09-29T13:23:37.524Z,18.37
2018-09-29T13:24:37.806Z,18.44
2018-09-29T13:25:37.822Z,18.3
2018-09-29T13:26:52.510Z,18.26
2018-09-29T13:27:37.613Z,18.29
2018-09-29T13:28:37.894Z,18.15
2018-09-29T13:29:38.166Z,18.29
2018-09-29T13:30:37.942Z,18.11
2018-09-29T13:31:37.964Z,17.99
2018-09-29T13:32:38.042Z,18
2018-09-29T13:34:38.037Z,18.07
2018-09-29T13:35:38.058Z,18.11
2018-09-29T13:36:52.810Z,18.02
2018-09-29T13:37:38.104Z,18
2018-09-29T13:39:38.156Z,17.68
2018-09-29T13:41:38.201Z,17.28
2018-09-29T13:42:38.220Z,17.25
2018-09-29T13:43:38.244Z,17.23
2018-09-29T13:44:38.008Z,17.15
2018-09-29T13:45:38.294Z,17.21
2018-09-29T13:46:38.316Z,17.28
2018-09-29T13:47:52.740Z,17.26
2018-09-29T13:48:38.103Z,17.38
2018-09-29T13:49:38.126Z,17.38
2018-09-29T13:50:38.406Z,17.55
2018-09-29T13:51:38.430Z,17.54
2018-09-29T13:52:53.114Z,17.52
2018-09-29T13:53:38.578Z,17.34
2018-09-29T13:55:38.268Z,17.52
2018-09-29T13:56:38.548Z,17.66
2018-09-29T13:57:38.317Z,17.82
2018-09-29T13:58:38.593Z,17.72
2018-09-29T13:59:53.278Z,17.79
2018-09-29T14:00:38.641Z,17.7